This is the latest recevied weather packets stored in our database for station/object HS5NMF. If no packets are shown the sender has not sent any weather packets the latest 10 day(s).
| Time | Temp. | Humidity | Pressure | Rain* | Wind** | Luminosity | Snow |
|---|---|---|---|---|---|---|---|
| 1777910285 | 28.89° C | 88% | 980 hPa | - | - | 0 W/m² | - |
| 1777909962 | 28.89° C | 89% | 980 hPa | - | - | 0 W/m² | - |
| 1777909638 | 28.89° C | 90% | 980 hPa | - | - | 0 W/m² | - |
| 1777909311 | 28.89° C | 91% | 980 hPa | - | - | 0 W/m² | - |
| 1777908989 | 29.44° C | 87% | 980 hPa | - | - | 0 W/m² | - |
| 1777908666 | 29.44° C | 89% | 980 hPa | - | - | 0 W/m² | - |
| 1777908342 | 28.89° C | 91% | 980 hPa | - | - | 0 W/m² | - |
| 1777908016 | 28.33° C | 96% | 979 hPa | - | - | 0 W/m² | - |
| 1777907693 | 28.33° C | 95% | 979 hPa | - | - | 0 W/m² | - |
| 1777907370 | 28.89° C | 93% | 979 hPa | - | - | 0 W/m² | - |
| 1777907046 | 29.44° C | 89% | 979 hPa | - | - | 0 W/m² | - |
| 1777906723 | 28.33° C | 93% | 979 hPa | - | - | 0 W/m² | - |
| 1777906400 | 28.89° C | 87% | 979 hPa | - | - | 0 W/m² | - |
| 1777906077 | 29.44° C | 84% | 979 hPa | - | - | 0 W/m² | - |
| 1777905753 | 29.44° C | 84% | 979 hPa | - | - | 0 W/m² | - |
| 1777905430 | 29.44° C | 86% | 979 hPa | - | - | 0 W/m² | - |
| 1777905106 | 29.44° C | 85% | 979 hPa | - | - | 0 W/m² | - |
| 1777904782 | 28.89° C | 88% | 979 hPa | - | - | 0 W/m² | - |
| 1777904459 | 29.44° C | 87% | 979 hPa | - | - | 0 W/m² | - |
| 1777904136 | 29.44° C | 83% | 979 hPa | - | - | 0 W/m² | - |
| 1777903813 | 29.44° C | 86% | 979 hPa | - | - | 0 W/m² | - |
| 1777903533 | 29.44° C | 84% | 979 hPa | - | - | 0 W/m² | - |
| 1777903489 | 29.44° C | 84% | 979 hPa | - | - | 0 W/m² | - |
| 1777903276 | 29.44° C | 84% | 979 hPa | - | - | 0 W/m² | - |
| 1777903266 | 30° C | 82% | 979 hPa | - | - | 0 W/m² | - |
* Rain since midnight (hover to see other rain measurements)
** Current wind speed in m/s (hover to see current wind gust speed)